.
WxDataArchive / Data Records for 2008-10-31
2008-10-30 October 2008 2008-11-01

Data Records for Friday, 31 October 2008

Time	Temp	Chill	HIndex	Humid	Dewpt	 Wind 	HiWind	WindDir	Rain 	Barom 
-----	----	-----	------	-----	-----	------	------	-------	-----	----- 
00:00	43.3	43.3	43.3	55	28.2	0	1	248	0.00	30.348 
00:05	43.2	43.2	43.2	56	28.6	0	1	248	0.00	30.344 
00:10	43.1	43.1	43.1	56	28.5	0	1	248	0.00	30.344 
00:15	43.2	43.2	43.2	56	28.6	0	1	248	0.00	30.345 
00:20	43.3	43.3	43.3	56	28.7	0	2	248	0.00	30.345 
00:25	43.6	43.6	43.6	56	29.0	0	2	248	0.00	30.343 
00:30	43.8	43.8	43.8	56	29.1	0	2	248	0.00	30.343 
00:35	43.8	43.8	43.8	56	29.1	0	2	248	0.00	30.342 
00:40	43.8	43.8	43.8	56	29.1	0	1	248	0.00	30.344 
00:45	43.9	43.9	43.9	56	29.2	0	1	248	0.00	30.342 
00:50	44.1	44.1	44.1	55	29.0	0	3	248	0.00	30.343 
00:55	44.2	44.2	44.2	55	29.1	0	3	248	0.00	30.345 
01:00	44.2	44.2	44.2	55	29.1	0	1	248	0.00	30.343 
01:05	44.2	44.2	44.2	55	29.1	0	1	248	0.00	30.342 
01:10	44.2	44.2	44.2	56	29.5	0	2	248	0.00	30.343 
01:15	44.1	44.1	44.1	56	29.4	0	1	248	0.00	30.343 
01:20	44.1	44.1	44.1	56	29.4	0	2	248	0.00	30.344 
01:25	44.1	44.1	44.1	56	29.4	0	2	248	0.00	30.343 
01:30	44.1	44.1	44.1	56	29.4	0	2	248	0.00	30.341 
01:35	44.1	44.1	44.1	57	29.9	0	1	248	0.00	30.341 
01:40	43.9	43.9	43.9	57	29.7	0	3	248	0.00	30.344 
01:45	44.1	44.1	44.1	57	29.9	0	3	248	0.00	30.346 
01:50	44.1	44.1	44.1	57	29.9	0	1	248	0.00	30.349 
01:55	44.1	44.1	44.1	57	29.9	0	1	248	0.00	30.350 
02:00	44.1	44.1	44.1	57	29.9	0	3	248	0.00	30.352 
02:05	43.9	43.9	43.9	58	30.1	0	1	248	0.00	30.350 
02:10	43.8	43.8	43.8	58	30.0	0	1	248	0.00	30.352 
02:15	43.6	43.6	43.6	58	29.8	0	1	248	0.00	30.352 
02:20	43.5	43.5	43.5	58	29.7	0	1	248	0.00	30.352 
02:25	43.3	43.3	43.3	59	29.9	0	1	248	0.00	30.352 
02:30	43.1	43.1	43.1	60	30.2	0	1	248	0.00	30.352 
02:35	42.8	42.8	42.8	60	29.9	0	1	248	0.00	30.353 
02:40	42.8	42.8	42.8	60	29.9	0	1	248	0.00	30.353 
02:45	42.8	42.8	42.8	61	30.3	0	0	---	0.00	30.352 
02:50	42.6	42.6	42.6	61	30.1	0	1	248	0.00	30.353 
02:55	42.6	42.6	42.6	61	30.1	0	1	248	0.00	30.353 
03:00	42.6	42.6	42.6	62	30.5	0	0	---	0.00	30.353 
03:05	42.5	42.5	42.5	62	30.4	0	0	---	0.00	30.354 
03:10	42.3	42.3	42.3	62	30.2	0	1	248	0.00	30.354 
03:15	42.3	42.3	42.3	62	30.2	0	1	248	0.00	30.353 
03:20	42.5	42.5	42.5	62	30.4	0	2	248	0.00	30.354 
03:25	42.6	42.6	42.6	62	30.5	0	2	248	0.00	30.354 
03:30	42.6	42.6	42.6	62	30.5	0	1	248	0.00	30.355 
03:35	42.6	42.6	42.6	62	30.5	0	1	248	0.00	30.355 
03:40	42.6	42.6	42.6	63	30.9	0	1	248	0.00	30.357 
03:45	42.5	42.5	42.5	63	30.8	0	0	---	0.00	30.357 
03:50	42.3	42.3	42.3	63	30.6	0	0	---	0.00	30.358 
03:55	42.1	42.1	42.1	64	30.8	0	0	---	0.00	30.358 
04:00	41.8	41.8	41.8	65	30.9	0	0	---	0.00	30.360 
04:05	41.3	41.3	41.3	66	30.8	0	0	---	0.00	30.361 
04:10	41.1	41.1	41.1	66	30.6	0	0	---	0.00	30.362 
04:15	40.8	40.8	40.8	67	30.7	0	0	---	0.00	30.362 
04:20	40.5	40.5	40.5	68	30.8	0	0	---	0.00	30.363 
04:25	40.3	40.3	40.3	69	31.0	0	1	248	0.00	30.366 
04:30	40.2	40.2	40.2	69	30.9	0	1	248	0.00	30.368 
04:35	40.3	40.3	40.3	69	31.0	0	1	248	0.00	30.370 
04:40	40.6	40.6	40.6	69	31.2	0	1	248	0.00	30.369 
04:45	40.8	40.8	40.8	69	31.4	0	1	248	0.00	30.371 
04:50	40.8	40.8	40.8	69	31.4	0	1	248	0.00	30.371 
04:55	41.1	41.1	41.1	68	31.4	0	1	248	0.00	30.371 
05:00	41.2	41.2	41.2	68	31.5	0	1	248	0.00	30.371 
05:05	41.5	41.5	41.5	68	31.7	0	1	248	0.00	30.377 
05:10	41.6	41.6	41.6	67	31.5	0	1	248	0.00	30.375 
05:15	41.9	41.9	41.9	67	31.8	0	2	248	0.00	30.375 
05:20	42.2	42.2	42.2	66	31.7	0	2	248	0.00	30.375 
05:25	42.5	42.5	42.5	66	32.0	0	2	248	0.00	30.375 
05:30	42.6	42.6	42.6	66	32.0	0	1	248	0.00	30.376 
05:35	42.8	42.8	42.8	66	32.2	0	1	248	0.00	30.375 
05:40	42.8	42.8	42.8	66	32.2	0	1	248	0.00	30.375 
05:45	42.6	42.6	42.6	66	32.0	0	1	248	0.00	30.374 
05:50	42.5	42.5	42.5	67	32.3	0	1	248	0.00	30.373 
05:55	42.5	42.5	42.5	67	32.3	0	2	248	0.00	30.373 
06:00	42.5	42.5	42.5	67	32.3	0	2	248	0.00	30.369 
06:05	42.8	42.8	42.8	67	32.6	1	2	248	0.00	30.370 
06:10	43.1	43.1	43.1	66	32.5	0	2	248	0.00	30.370 
06:15	43.3	43.3	43.3	65	32.3	1	4	248	0.00	30.369 
06:20	43.5	43.5	43.5	65	32.5	0	1	248	0.00	30.370 
06:25	43.6	43.6	43.6	65	32.6	1	3	248	0.00	30.369 
06:30	43.8	43.8	43.8	65	32.8	0	3	248	0.00	30.367 
06:35	43.8	43.8	43.8	65	32.8	1	4	248	0.00	30.368 
06:40	43.8	43.8	43.8	65	32.8	0	1	270	0.00	30.368 
06:45	43.6	43.6	43.6	66	33.0	0	3	270	0.00	30.367 
06:50	43.6	43.6	43.6	66	33.0	0	3	225	0.00	30.366 
06:55	43.6	43.6	43.6	65	32.6	0	4	248	0.00	30.366 
07:00	43.6	43.6	43.6	65	32.6	0	3	248	0.00	30.367 
07:05	43.6	43.6	43.6	66	33.0	0	2	248	0.00	30.365 
07:10	43.8	43.8	43.8	66	33.2	0	3	248	0.00	30.364 
07:15	43.8	43.8	43.8	66	33.2	0	2	248	0.00	30.365 
07:20	43.8	43.8	43.8	66	33.2	0	2	225	0.00	30.366 
07:25	43.9	43.9	43.9	66	33.3	0	3	225	0.00	30.365 
07:30	44.1	44.1	44.1	66	33.5	0	1	225	0.00	30.365 
07:35	44.1	44.1	44.1	66	33.5	0	2	225	0.00	30.365 
07:40	44.2	44.2	44.2	66	33.6	0	4	248	0.00	30.366 
07:45	44.2	44.2	44.2	66	33.6	0	2	248	0.00	30.366 
07:50	44.5	44.5	44.5	66	33.9	0	2	248	0.00	30.368 
07:55	44.8	44.8	44.8	65	33.8	0	2	248	0.00	30.368 
08:00	45.2	45.2	45.2	65	34.1	1	6	225	0.00	30.367 
08:05	45.7	45.7	45.7	64	34.2	0	3	248	0.00	30.367 
08:10	46.1	46.1	46.1	64	34.6	1	5	248	0.00	30.368 
08:15	46.5	46.5	46.5	63	34.6	1	3	248	0.00	30.368 
08:20	47.0	47.0	47.0	62	34.7	1	4	225	0.00	30.366 
08:25	47.3	47.3	47.3	62	34.9	1	3	248	0.00	30.365 
08:30	47.7	47.7	47.7	61	34.9	1	4	248	0.00	30.362 
08:35	48.2	48.2	48.2	61	35.4	1	4	248	0.00	30.363 
08:40	48.8	48.8	48.8	60	35.5	1	4	248	0.00	30.363 
08:45	49.2	49.2	49.2	59	35.5	1	4	248	0.00	30.363 
08:50	49.6	49.6	49.6	58	35.4	1	3	248	0.00	30.362 
08:55	50.2	50.2	50.2	58	36.0	1	4	248	0.00	30.359 
09:00	50.7	50.7	50.7	57	36.0	2	5	248	0.00	30.357 
09:05	51.3	51.3	51.3	57	36.6	1	5	270	0.00	30.358 
09:10	51.7	51.7	51.7	56	36.5	2	9	248	0.00	30.356 
09:15	52.2	52.2	52.2	56	37.0	2	5	248	0.00	30.356 
09:20	52.8	52.8	52.8	56	37.5	2	6	248	0.00	30.356 
09:25	53.1	53.1	53.1	54	36.9	3	11	270	0.00	30.355 
09:30	53.5	53.5	53.5	54	37.3	2	7	248	0.00	30.356 
09:35	53.9	53.9	53.9	54	37.6	2	6	248	0.00	30.353 
09:40	54.4	54.4	54.4	54	38.1	2	6	248	0.00	30.350 
09:45	54.7	54.7	54.7	54	38.4	2	5	248	0.00	30.351 
09:50	55.1	55.1	55.1	53	38.3	2	5	248	0.00	30.352 
09:55	55.6	55.6	55.6	53	38.7	2	5	248	0.00	30.347 
10:00	56.0	56.0	56.0	52	38.6	2	6	248	0.00	30.346 
10:05	56.5	56.5	56.5	52	39.1	2	5	248	0.00	30.345 
10:10	56.9	56.9	56.9	54	40.4	1	4	248	0.00	30.341 
10:15	57.5	57.5	57.5	52	40.0	1	4	270	0.00	30.339 
10:20	58.0	58.0	58.0	51	40.0	2	5	248	0.00	30.338 
10:25	58.3	58.3	58.3	51	40.3	3	10	270	0.00	30.337 
10:30	58.4	58.4	58.4	50	39.8	3	7	248	0.00	30.335 
10:35	58.7	58.7	58.7	51	40.6	2	6	248	0.00	30.333 
10:40	59.2	59.2	59.2	50	40.6	3	10	270	0.00	30.333 
10:45	59.3	59.3	59.3	50	40.7	3	7	248	0.00	30.332 
10:50	59.6	59.6	59.6	50	40.9	2	6	248	0.00	30.330 
10:55	59.9	59.9	59.9	50	41.2	3	7	248	0.00	30.332 
11:00	60.4	60.4	60.4	50	41.7	2	4	248	0.00	30.331 
11:05	60.7	60.7	60.7	49	41.4	2	5	248	0.00	30.328 
11:10	61.2	61.2	61.2	49	41.9	2	4	248	0.00	30.327 
11:15	61.6	61.6	61.6	50	42.8	3	9	248	0.00	30.323 
11:20	62.1	62.1	62.1	51	43.8	1	2	270	0.00	30.321 
11:25	62.6	62.6	62.6	49	43.2	2	7	248	0.00	30.320 
11:30	63.1	63.1	63.1	49	43.6	1	2	248	0.00	30.317 
11:35	63.4	63.4	63.4	48	43.4	2	7	248	0.00	30.316 
11:40	63.7	63.7	63.7	49	44.2	1	4	248	0.00	30.315 
11:45	63.9	63.9	63.9	47	43.3	2	6	248	0.00	30.314 
11:50	63.9	63.9	63.9	48	43.8	3	6	248	0.00	30.312 
11:55	64.2	64.2	64.2	48	44.1	2	6	248	0.00	30.311 
12:00	64.3	64.3	64.3	49	44.7	2	6	270	0.00	30.308 
12:05	64.5	64.5	64.5	47	43.8	2	5	248	0.00	30.303 
12:10	64.8	64.8	64.8	47	44.1	2	3	248	0.00	30.302 
12:15	65.2	65.2	65.2	48	45.0	1	4	248	0.00	30.299 
12:20	65.3	65.3	65.3	47	44.5	2	7	248	0.00	30.300 
12:25	65.2	65.2	65.2	46	43.9	3	7	248	0.00	30.298 
12:30	65.3	65.3	65.3	47	44.5	2	7	248	0.00	30.298 
12:35	65.5	65.5	65.5	47	44.7	3	6	248	0.00	30.296 
12:40	65.8	65.8	65.8	47	45.0	2	6	248	0.00	30.295 
12:45	66.0	66.0	66.0	47	45.2	3	6	248	0.00	30.293 
12:50	66.1	66.1	66.1	47	45.3	2	5	248	0.00	30.290 
12:55	66.8	66.8	66.8	46	45.3	2	6	248	0.00	30.290 
13:00	66.9	66.9	66.9	45	44.9	2	6	248	0.00	30.288 
13:05	67.3	67.3	67.3	49	47.5	1	4	248	0.00	30.287 
13:10	67.6	67.6	67.6	46	46.1	2	7	248	0.00	30.283 
13:15	67.8	67.8	67.8	47	46.8	2	4	248	0.00	30.280 
13:20	67.8	67.8	67.8	46	46.3	3	9	248	0.00	30.282 
13:25	67.9	67.9	67.9	47	46.9	1	3	248	0.00	30.281 
13:30	68.1	68.1	68.1	46	46.5	1	4	248	0.00	30.279 
13:35	68.4	68.4	68.4	45	46.2	2	5	270	0.00	30.277 
13:40	68.6	68.6	68.6	44	45.8	2	6	270	0.00	30.276 
13:45	68.6	68.6	68.6	45	46.4	2	5	248	0.00	30.272 
13:50	68.8	68.8	68.8	46	47.2	1	4	248	0.00	30.273 
13:55	69.1	69.1	69.1	46	47.4	1	4	270	0.00	30.268 
14:00	69.3	69.3	69.3	46	47.6	1	5	248	0.00	30.267 
14:05	69.4	69.4	69.4	45	47.1	1	6	248	0.00	30.265 
14:10	69.6	69.6	69.6	45	47.3	2	6	248	0.00	30.263 
14:15	69.6	69.6	69.6	45	47.3	2	4	248	0.00	30.263 
14:20	69.6	69.6	69.6	44	46.7	1	3	248	0.00	30.262 
14:25	69.6	69.6	69.6	43	46.1	2	5	248	0.00	30.262 
14:30	69.6	69.6	69.6	45	47.3	2	5	248	0.00	30.262 
14:35	69.8	69.8	69.8	45	47.5	2	4	270	0.00	30.262 
14:40	69.8	69.8	69.8	45	47.5	2	7	248	0.00	30.262 
14:45	69.9	69.9	69.9	44	47.0	2	5	248	0.00	30.260 
14:50	69.9	69.9	69.9	45	47.6	2	7	248	0.00	30.260 
14:55	70.4	70.4	70.4	44	47.4	2	5	248	0.00	30.258 
15:00	70.8	70.8	70.8	44	47.8	1	4	225	0.00	30.255 
15:05	70.9	70.9	70.9	43	47.3	1	6	248	0.00	30.255 
15:10	71.1	71.1	71.1	43	47.5	1	4	248	0.00	30.253 
15:15	71.1	71.1	71.1	43	47.5	1	5	248	0.00	30.252 
15:20	71.1	71.1	71.1	44	48.1	2	4	248	0.00	30.252 
15:25	71.1	71.1	71.1	44	48.1	2	7	248	0.00	30.253 
15:30	70.9	70.9	70.9	43	47.3	2	5	270	0.00	30.254 
15:35	70.8	70.8	70.8	44	47.8	1	6	248	0.00	30.254 
15:40	70.6	70.6	70.6	44	47.6	2	7	248	0.00	30.254 
15:45	70.4	70.4	70.4	46	48.6	1	3	248	0.00	30.255 
15:50	70.4	70.4	70.4	45	48.0	2	5	248	0.00	30.252 
15:55	70.3	70.3	70.3	45	47.9	2	7	248	0.00	30.251 
16:00	70.3	70.3	70.3	46	48.5	2	6	248	0.00	30.250 
16:05	70.1	70.1	70.1	46	48.3	2	5	248	0.00	30.252 
16:10	70.1	70.1	70.1	46	48.3	1	3	248	0.00	30.253 
16:15	70.1	70.1	70.1	45	47.8	2	5	248	0.00	30.251 
16:20	69.9	69.9	69.9	46	48.2	1	4	248	0.00	30.250 
16:25	69.8	69.8	69.8	46	48.1	1	3	248	0.00	30.250 
16:30	69.8	69.8	69.8	46	48.1	1	5	248	0.00	30.250 
16:35	69.6	69.6	69.6	47	48.5	1	3	248	0.00	30.250 
16:40	69.4	69.4	69.4	46	47.7	1	6	248	0.00	30.249 
16:45	69.3	69.3	69.3	46	47.6	2	5	248	0.00	30.248 
16:50	69.1	69.1	69.1	47	48.0	1	3	248	0.00	30.248 
16:55	68.9	68.9	68.9	47	47.8	1	4	248	0.00	30.248 
17:00	68.8	68.8	68.8	48	48.3	1	3	248	0.00	30.248 
17:05	68.4	68.4	68.4	48	47.9	1	5	248	0.00	30.248 
17:10	68.3	68.3	68.3	48	47.8	1	4	248	0.00	30.248 
17:15	67.9	67.9	67.9	49	48.0	0	2	248	0.00	30.248 
17:20	67.6	67.6	67.6	50	48.3	0	1	248	0.00	30.248 
17:25	67.1	67.1	67.1	50	47.8	0	2	248	0.00	30.249 
17:30	66.8	66.8	66.8	51	48.1	0	1	248	0.00	30.249 
17:35	66.3	66.3	66.3	52	48.1	0	2	248	0.00	30.250 
17:40	66.0	66.0	66.0	53	48.4	0	2	248	0.00	30.251 
17:45	65.6	65.6	65.6	53	48.0	0	2	248	0.00	30.251 
17:50	65.3	65.3	65.3	54	48.2	0	1	248	0.00	30.252 
17:55	65.0	65.0	65.0	54	47.9	0	2	248	0.00	30.253 
18:00	64.7	64.7	64.7	55	48.2	0	1	248	0.00	30.254 
18:05	64.2	64.2	64.2	56	48.2	0	0	---	0.00	30.254 
18:10	63.7	63.7	63.7	57	48.2	0	1	248	0.00	30.255 
18:15	63.4	63.4	63.4	57	47.9	0	1	248	0.00	30.260 
18:20	63.2	63.2	63.2	57	47.7	0	2	248	0.00	30.263 
18:25	63.1	63.1	63.1	58	48.1	0	1	248	0.00	30.265 
18:30	62.7	62.7	62.7	58	47.7	0	0	---	0.00	30.267 
18:35	62.3	62.3	62.3	59	47.8	0	0	---	0.00	30.267 
18:40	61.8	61.8	61.8	60	47.8	0	1	248	0.00	30.269 
18:45	61.3	61.3	61.3	60	47.3	0	1	248	0.00	30.269 
18:50	61.2	61.2	61.2	61	47.6	0	2	248	0.00	30.271 
18:55	61.2	61.2	61.2	61	47.6	0	1	248	0.00	30.273 
19:00	61.2	61.2	61.2	61	47.6	0	2	248	0.00	30.277 
19:05	61.2	61.2	61.2	61	47.6	0	2	248	0.00	30.275 
19:10	61.0	61.0	61.0	61	47.5	0	1	248	0.00	30.275 
19:15	60.9	60.9	60.9	61	47.4	0	1	248	0.00	30.274 
19:20	60.5	60.5	60.5	62	47.4	0	2	248	0.00	30.274 
19:25	60.2	60.2	60.2	62	47.1	0	1	248	0.00	30.280 
19:30	59.9	59.9	59.9	62	46.8	0	1	248	0.00	30.277 
19:35	59.8	59.8	59.8	63	47.2	0	1	248	0.00	30.277 
19:40	59.6	59.6	59.6	63	47.0	0	3	248	0.00	30.278 
19:45	59.6	59.6	59.6	63	47.0	0	1	248	0.00	30.275 
19:50	59.6	59.6	59.6	62	46.6	0	2	248	0.00	30.275 
19:55	59.6	59.6	59.6	62	46.6	0	1	248	0.00	30.277 
20:00	59.6	59.6	59.6	62	46.6	0	2	248	0.00	30.275 
20:05	59.5	59.5	59.5	62	46.5	0	2	248	0.00	30.269 
20:10	59.5	59.5	59.5	62	46.5	0	2	248	0.00	30.270 
20:15	59.3	59.3	59.3	62	46.3	0	2	248	0.00	30.270 
20:20	59.3	59.3	59.3	62	46.3	0	2	248	0.00	30.271 
20:25	59.3	59.3	59.3	62	46.3	0	2	248	0.00	30.272 
20:30	59.2	59.2	59.2	62	46.2	0	2	248	0.00	30.273 
20:35	59.0	59.0	59.0	62	46.0	0	2	248	0.00	30.274 
20:40	58.9	58.9	58.9	63	46.3	0	2	248	0.00	30.276 
20:45	58.7	58.7	58.7	63	46.1	0	2	248	0.00	30.278 
20:50	58.6	58.6	58.6	63	46.0	0	2	248	0.00	30.278 
20:55	58.4	58.4	58.4	63	45.9	0	1	248	0.00	30.279 
21:00	58.4	58.4	58.4	63	45.9	0	2	248	0.00	30.280 
21:05	58.4	58.4	58.4	63	45.9	0	1	248	0.00	30.275 
21:10	58.3	58.3	58.3	63	45.8	0	2	248	0.00	30.275 
21:15	58.3	58.3	58.3	63	45.8	0	3	248	0.00	30.275 
21:20	58.3	58.3	58.3	63	45.8	0	2	248	0.00	30.274 
21:25	58.3	58.3	58.3	63	45.8	0	2	248	0.00	30.274 
21:30	58.3	58.3	58.3	62	45.3	0	3	248	0.00	30.273 
21:35	58.3	58.3	58.3	62	45.3	0	3	248	0.00	30.273 
21:40	58.3	58.3	58.3	62	45.3	0	2	248	0.00	30.275 
21:45	58.3	58.3	58.3	62	45.3	0	4	248	0.00	30.275 
21:50	58.3	58.3	58.3	62	45.3	0	1	270	0.00	30.275 
21:55	58.3	58.3	58.3	62	45.3	0	1	270	0.00	30.276 
22:00	58.1	58.1	58.1	62	45.1	0	2	270	0.00	30.275 
22:05	58.1	58.1	58.1	62	45.1	0	2	248	0.00	30.270 
22:10	58.0	58.0	58.0	62	45.1	0	3	248	0.00	30.271 
22:15	58.0	58.0	58.0	62	45.1	0	1	248	0.00	30.270 
22:20	57.8	57.8	57.8	62	44.9	0	3	248	0.00	30.269 
22:25	57.6	57.6	57.6	62	44.7	0	4	248	0.00	30.269 
22:30	57.5	57.5	57.5	63	45.0	0	2	248	0.00	30.269 
22:35	57.3	57.3	57.3	63	44.8	0	1	248	0.00	30.268 
22:40	57.3	57.3	57.3	63	44.8	1	4	248	0.00	30.269 
22:45	57.3	57.3	57.3	63	44.8	0	3	248	0.00	30.269 
22:50	57.3	57.3	57.3	63	44.8	0	2	248	0.00	30.268 
22:55	57.5	57.5	57.5	62	44.6	1	3	248	0.00	30.266 
23:00	57.5	57.5	57.5	62	44.6	1	5	248	0.00	30.265 
23:05	57.5	57.5	57.5	62	44.6	1	3	248	0.00	30.260 
23:10	57.5	57.5	57.5	62	44.6	1	3	248	0.00	30.258 
23:15	57.5	57.5	57.5	62	44.6	0	3	248	0.00	30.259 
23:20	57.5	57.5	57.5	62	44.6	1	3	248	0.00	30.260 
23:25	57.5	57.5	57.5	62	44.6	0	2	248	0.00	30.261 
23:30	57.3	57.3	57.3	62	44.4	0	2	248	0.00	30.263 
23:35	57.2	57.2	57.2	62	44.3	0	2	248	0.00	30.262 
23:40	57.0	57.0	57.0	63	44.5	0	2	248	0.00	30.262 
23:45	56.7	56.7	56.7	63	44.2	0	2	248	0.00	30.262 
23:50	56.6	56.6	56.6	63	44.2	0	2	248	0.00	30.263 
23:55	56.5	56.5	56.5	64	44.5	0	1	248	0.00	30.262 

CoCoRaHS
IN-AL-39
A2 Web Hosting
Creative Commons License
GoDaddy
Look for:

loaded 2017-10-16 18:22:06 • last modified 2010-11-18 10:43:29
Privacy PolicyDisclaimer
• wx.awcolley.com is powered by PmWiki v.2002016 •
• all content (unless otherwise noted) © 2017 A W Colley